< Typhoon 196026 1960 Season Typhoon 196101 >
Typhoon 196027 (PHYLLIS)
General InformationTrack Information on Google Maps || Disaster Info.ResourceGoogle EarthGE AnimationAtom FeedGeoJSON
Detalied Best Track (Time Zone = UTC)
Year Month Day Hour Lat. Long. Pressure (hPa) Wind (kt) Class Image Chart
1960 12 11 00 7.0 146.0 1006 0 2 -- Chart
1960 12 11 06 7.5 146.5 1002 0 2 -- Chart
1960 12 11 12 8.0 146.4 1002 0 2 -- Chart
1960 12 11 18 9.2 145.6 1000 0 2 -- Chart
1960 12 12 00 9.8 144.0 1002 0 2 -- Chart
1960 12 12 06 10.1 142.0 996 0 9 -- Chart
1960 12 12 12 10.6 140.2 1000 0 9 -- Chart
1960 12 12 18 11.1 138.0 998 0 9 -- Chart
1960 12 13 00 11.7 135.7 995 0 9 -- Chart
1960 12 13 06 11.7 134.5 985 0 9 -- Chart
1960 12 13 12 12.1 134.0 985 0 9 -- Chart
1960 12 13 18 12.6 133.6 985 0 9 -- Chart
1960 12 14 00 13.1 133.2 980 0 9 -- Chart
1960 12 14 06 13.3 132.8 980 0 9 -- Chart
1960 12 14 12 13.7 132.7 980 0 9 -- Chart
1960 12 14 18 13.8 132.6 980 0 9 -- Chart
1960 12 15 00 13.9 132.5 980 0 9 -- Chart
1960 12 15 06 14.7 132.6 985 0 9 -- Chart
1960 12 15 12 14.6 131.8 985 0 9 -- Chart
1960 12 15 18 14.7 131.2 985 0 9 -- Chart
1960 12 16 00 14.8 130.3 985 0 9 -- Chart
1960 12 16 06 15.2 129.4 980 0 9 -- Chart
1960 12 16 12 15.3 128.3 975 0 9 -- Chart
1960 12 16 18 15.5 127.5 975 0 9 -- Chart
1960 12 17 00 15.6 126.2 975 0 9 -- Chart
1960 12 17 06 15.8 125.6 975 0 9 -- Chart
1960 12 17 12 16.5 125.0 975 0 9 -- Chart
1960 12 17 18 17.0 124.4 975 0 9 -- Chart
1960 12 18 00 17.3 124.2 970 0 9 -- Chart
1960 12 18 06 17.5 124.3 965 0 9 -- Chart
1960 12 18 12 17.7 124.4 970 0 9 -- Chart
1960 12 18 18 17.8 124.9 975 0 9 -- Chart
1960 12 19 00 17.8 125.4 980 0 9 -- Chart
1960 12 19 06 17.8 125.7 985 0 9 -- Chart
1960 12 19 12 17.8 126.0 990 0 9 -- Chart
1960 12 19 18 17.9 126.3 995 0 9 -- Chart
1960 12 20 00 18.1 126.7 1000 0 9 -- Chart
1960 12 20 06 18.0 127.1 1006 0 2 -- Chart
1960 12 20 12 18.0 127.5 1010 0 2 -- Chart
Japan Meteorological Agency Best Track Data | Correction Date : 1989-06-01
< Typhoon 196026 1960 Season Typhoon 196101 >

Help